createdAt,value
2018-12-01T00:00:23.756Z,98.50
2018-12-01T00:02:52.342Z,98.40
2018-12-01T00:05:20.837Z,98.30
2018-12-01T00:07:49.889Z,98.50
2018-12-01T00:10:18.445Z,98.60
2018-12-01T00:12:47.046Z,98.70
2018-12-01T00:15:17.874Z,98.60
2018-12-01T00:17:46.462Z,98.70
2018-12-01T00:20:17.371Z,98.80
2018-12-01T00:22:45.889Z,98.80
2018-12-01T00:25:14.402Z,99.20
2018-12-01T00:27:42.889Z,99.20
2018-12-01T00:30:13.473Z,99.20
2018-12-01T00:32:42.522Z,99.10
2018-12-01T00:35:12.066Z,99.30
2018-12-01T00:37:40.586Z,99.20
2018-12-01T00:40:11.534Z,99.40
2018-12-01T00:42:40.344Z,99.50
2018-12-01T00:45:11.105Z,99.50
2018-12-01T00:47:39.589Z,99.40
2018-12-01T00:50:12.763Z,99.50
2018-12-01T00:52:41.345Z,99.50
2018-12-01T00:55:14.896Z,99.50
2018-12-01T00:57:43.384Z,99.60
2018-12-01T01:00:22.600Z,99.70
2018-12-01T01:02:52.772Z,99.70
2018-12-01T01:05:22.155Z,99.70
2018-12-01T01:07:50.735Z,99.70
2018-12-01T01:10:20.041Z,99.80
2018-12-01T01:12:48.781Z,99.90
2018-12-01T01:15:17.353Z,99.90
2018-12-01T01:17:45.865Z,99.80
2018-12-01T01:20:16.222Z,99.60
2018-12-01T01:22:45.334Z,99.30
2018-12-01T01:25:14.160Z,99.20
2018-12-01T01:27:42.714Z,99.10
2018-12-01T01:30:13.618Z,98.90
2018-12-01T01:32:42.134Z,98.80
2018-12-01T01:35:10.656Z,98.70
2018-12-01T01:37:39.168Z,98.60
2018-12-01T01:40:09.749Z,98.70
2018-12-01T01:42:38.261Z,98.70
2018-12-01T01:45:23.457Z,98.70
2018-12-01T01:47:52.012Z,98.50
2018-12-01T01:50:21.371Z,98.40
2018-12-01T01:52:50.028Z,98.40
2018-12-01T01:55:18.539Z,98.20
2018-12-01T01:57:47.072Z,98.20
2018-12-01T02:00:18.388Z,98.30
2018-12-01T02:02:50.808Z,98.40
2018-12-01T02:05:20.594Z,98.30
2018-12-01T02:07:49.164Z,98.30
2018-12-01T02:10:18.330Z,98.30
2018-12-01T02:12:46.848Z,98.20
2018-12-01T02:15:15.516Z,98.30
2018-12-01T02:17:44.045Z,98.30
2018-12-01T02:20:14.346Z,98.30
2018-12-01T02:22:42.927Z,98.20
2018-12-01T02:25:15.274Z,98.20
2018-12-01T02:27:43.830Z,98.10
2018-12-01T02:30:15.448Z,98.20
2018-12-01T02:32:43.960Z,98.20
2018-12-01T02:35:13.967Z,98.10
2018-12-01T02:37:42.477Z,98.20
2018-12-01T02:40:12.124Z,98.20
2018-12-01T02:42:41.263Z,98.00
2018-12-01T02:45:20.903Z,98.10
2018-12-01T02:47:49.401Z,98.20
2018-12-01T02:50:23.302Z,98.20
2018-12-01T02:52:53.352Z,98.10
2018-12-01T02:55:21.959Z,98.10
2018-12-01T02:57:51.022Z,97.90
2018-12-01T03:00:19.573Z,97.60
2018-12-01T03:02:48.049Z,97.40
2018-12-01T03:05:16.638Z,97.40
2018-12-01T03:07:45.253Z,97.00
2018-12-01T03:10:14.729Z,96.90
2018-12-01T03:12:43.277Z,97.10
2018-12-01T03:15:15.102Z,97.30
2018-12-01T03:17:43.650Z,97.40
2018-12-01T03:20:19.181Z,97.50
2018-12-01T03:22:47.699Z,97.70
2018-12-01T03:25:23.858Z,97.60
2018-12-01T03:27:53.259Z,97.60
2018-12-01T03:30:26.576Z,97.50
2018-12-01T03:32:55.668Z,97.50
2018-12-01T03:35:25.165Z,97.50
2018-12-01T03:37:53.752Z,97.30
2018-12-01T03:40:22.846Z,97.40
2018-12-01T03:42:52.430Z,97.50
2018-12-01T03:45:22.991Z,97.50
2018-12-01T03:47:51.480Z,97.50
2018-12-01T03:50:22.450Z,97.50
2018-12-01T03:52:53.157Z,97.40
2018-12-01T03:55:28.854Z,97.30
2018-12-01T03:57:57.323Z,97.30
2018-12-01T04:00:28.148Z,97.40
2018-12-01T04:02:57.493Z,97.50
2018-12-01T04:05:26.131Z,97.50
2018-12-01T04:07:54.626Z,97.60
2018-12-01T04:10:23.151Z,97.50
2018-12-01T04:12:51.691Z,97.60
2018-12-01T04:15:20.278Z,97.70
2018-12-01T04:17:48.957Z,97.70
2018-12-01T04:20:17.545Z,97.90
2018-12-01T04:22:46.088Z,97.80
2018-12-01T04:25:14.581Z,97.80
2018-12-01T04:27:43.126Z,97.80
2018-12-01T04:30:15.806Z,97.80
2018-12-01T04:32:44.350Z,97.80
2018-12-01T04:35:17.433Z,97.90
2018-12-01T04:37:46.977Z,98.10
2018-12-01T04:40:15.449Z,98.20
2018-12-01T04:42:44.517Z,98.30
2018-12-01T04:45:13.071Z,98.50
2018-12-01T04:47:41.586Z,98.60
2018-12-01T04:50:11.354Z,98.70
2018-12-01T04:52:39.865Z,98.70
2018-12-01T04:55:10.566Z,98.70
2018-12-01T04:57:39.119Z,98.60
2018-12-01T05:00:10.481Z,98.60
2018-12-01T05:02:38.956Z,98.70
2018-12-01T05:05:09.161Z,98.60
2018-12-01T05:07:37.689Z,98.60
2018-12-01T05:10:08.706Z,98.40
2018-12-01T05:12:37.277Z,98.30
2018-12-01T05:15:10.463Z,98.00
2018-12-01T05:17:39.036Z,98.00
2018-12-01T05:20:11.738Z,97.80
2018-12-01T05:22:40.222Z,97.70
2018-12-01T05:25:09.690Z,97.70
2018-12-01T05:27:38.247Z,97.70
2018-12-01T05:30:07.750Z,97.80
2018-12-01T05:32:36.890Z,97.90
2018-12-01T05:35:08.609Z,97.80
2018-12-01T05:37:37.081Z,97.60
2018-12-01T05:40:08.003Z,97.40
2018-12-01T05:42:39.535Z,97.50
2018-12-01T05:45:13.662Z,97.40
2018-12-01T05:47:42.241Z,97.50
2018-12-01T05:50:11.491Z,97.50
2018-12-01T05:52:40.007Z,97.40
2018-12-01T05:55:09.978Z,97.30
2018-12-01T05:57:38.457Z,97.30
2018-12-01T06:00:09.886Z,97.40
2018-12-01T06:02:38.430Z,97.40
2018-12-01T06:05:07.428Z,97.50
2018-12-01T06:07:35.892Z,97.50
2018-12-01T06:10:06.857Z,97.40
2018-12-01T06:12:35.357Z,97.20
2018-12-01T06:15:04.052Z,97.20
2018-12-01T06:17:32.612Z,97.30
2018-12-01T06:20:01.173Z,97.40
2018-12-01T06:22:29.696Z,97.50
2018-12-01T06:24:58.219Z,97.50
2018-12-01T06:27:26.697Z,97.60
2018-12-01T06:29:55.203Z,97.90
2018-12-01T06:32:23.825Z,98.10
2018-12-01T06:34:52.326Z,98.00
2018-12-01T06:37:20.846Z,98.00
2018-12-01T06:39:49.446Z,98.30
2018-12-01T06:42:17.928Z,98.60
2018-12-01T06:44:46.474Z,98.70
2018-12-01T06:47:15.088Z,98.80
2018-12-01T06:49:43.550Z,98.80
2018-12-01T06:52:12.046Z,98.90
2018-12-01T06:54:40.581Z,99.10
2018-12-01T06:57:09.100Z,99.10
2018-12-01T06:59:37.574Z,99.10
2018-12-01T07:02:06.821Z,99.20
2018-12-01T07:04:35.358Z,99.20
2018-12-01T07:07:03.919Z,99.60
2018-12-01T07:09:32.423Z,99.60
2018-12-01T07:12:01.079Z,99.60
2018-12-01T07:14:29.582Z,99.60
2018-12-01T07:16:58.131Z,99.80
2018-12-01T07:19:26.606Z,99.90
2018-12-01T07:21:55.105Z,99.90
2018-12-01T07:24:23.657Z,99.90
2018-12-01T07:26:52.287Z,99.90
2018-12-01T07:29:20.819Z,99.90
2018-12-01T07:31:49.373Z,99.90
2018-12-01T07:34:17.876Z,99.90
2018-12-01T07:36:46.430Z,99.90
2018-12-01T07:39:15.043Z,99.90
2018-12-01T07:41:43.553Z,99.90
2018-12-01T07:44:12.154Z,99.90
2018-12-01T07:46:46.927Z,99.90
2018-12-01T07:49:15.489Z,99.70
2018-12-01T07:51:44.039Z,99.60
2018-12-01T07:54:12.543Z,99.00
2018-12-01T07:56:41.042Z,98.70
2018-12-01T07:59:09.674Z,98.50
2018-12-01T08:01:38.240Z,98.40
2018-12-01T08:04:06.774Z,98.30
2018-12-01T08:06:35.274Z,98.10
2018-12-01T08:09:04.950Z,97.80
2018-12-01T08:11:33.473Z,97.80
2018-12-01T08:14:01.985Z,97.70
2018-12-01T08:16:30.697Z,97.50
2018-12-01T08:18:59.263Z,97.40
2018-12-01T08:21:27.866Z,97.40
2018-12-01T08:23:56.445Z,97.60
2018-12-01T08:26:24.959Z,97.30
2018-12-01T08:28:53.517Z,97.20
2018-12-01T08:31:22.076Z,97.20
2018-12-01T08:33:50.628Z,97.10
2018-12-01T08:36:19.206Z,97.00
2018-12-01T08:38:47.833Z,96.90
2018-12-01T08:41:16.317Z,97.00
2018-12-01T08:43:45.212Z,96.70
2018-12-01T08:46:13.466Z,96.50
2018-12-01T08:48:41.966Z,96.50
2018-12-01T08:51:14.728Z,96.30
2018-12-01T08:53:43.304Z,96.40
2018-12-01T08:56:11.909Z,96.20
2018-12-01T08:58:40.516Z,95.50
2018-12-01T09:01:09.117Z,95.20
2018-12-01T09:03:38.428Z,95.10
2018-12-01T09:06:07.044Z,95.10
2018-12-01T09:08:35.611Z,95.10
2018-12-01T09:11:04.119Z,94.90
2018-12-01T09:13:33.059Z,94.80
2018-12-01T09:16:01.668Z,94.40
2018-12-01T09:18:30.234Z,94.40
2018-12-01T09:20:58.843Z,94.20
2018-12-01T09:23:27.370Z,94.40
2018-12-01T09:25:55.905Z,94.60
2018-12-01T09:28:24.424Z,94.80
2018-12-01T09:30:52.986Z,94.50
2018-12-01T09:33:21.525Z,94.50
2018-12-01T09:35:50.080Z,94.40
2018-12-01T09:38:18.594Z,94.60
2018-12-01T09:40:47.142Z,94.60
2018-12-01T09:43:15.696Z,94.70
2018-12-01T09:45:44.206Z,94.80
2018-12-01T09:48:12.785Z,94.50
2018-12-01T09:50:41.343Z,94.30
2018-12-01T09:53:09.849Z,94.10
2018-12-01T09:55:38.391Z,93.90
2018-12-01T09:58:07.460Z,93.50
2018-12-01T10:00:35.997Z,93.40
2018-12-01T10:03:06.698Z,93.00
2018-12-01T10:05:35.408Z,93.00
2018-12-01T10:08:04.017Z,92.70
2018-12-01T10:10:32.578Z,93.00
2018-12-01T10:13:01.211Z,93.00
2018-12-01T10:15:34.094Z,93.10
2018-12-01T10:18:02.634Z,92.60
2018-12-01T10:23:15.853Z,92.90
2018-12-01T10:25:44.450Z,92.70
2018-12-01T10:28:12.952Z,92.70
2018-12-01T10:30:41.511Z,93.10
2018-12-01T10:33:10.118Z,93.00
2018-12-01T10:35:38.703Z,92.90
2018-12-01T10:38:12.110Z,92.90
2018-12-01T10:40:40.598Z,92.80
2018-12-01T10:43:09.138Z,92.60
2018-12-01T10:45:38.046Z,92.70
2018-12-01T10:48:08.040Z,92.60
2018-12-01T10:50:36.553Z,92.70
2018-12-01T10:53:05.254Z,92.60
2018-12-01T10:55:34.538Z,92.50
2018-12-01T10:58:08.914Z,91.90
2018-12-01T11:00:42.737Z,92.20
2018-12-01T11:03:16.479Z,92.50
2018-12-01T11:05:45.368Z,92.30
2018-12-01T11:08:14.954Z,92.20
2018-12-01T11:10:43.672Z,92.30
2018-12-01T11:13:12.258Z,92.30
2018-12-01T11:15:40.796Z,92.20
2018-12-01T11:18:09.368Z,92.30
2018-12-01T11:20:38.232Z,92.30
2018-12-01T11:23:07.047Z,92.10
2018-12-01T11:25:35.646Z,91.70
2018-12-01T11:28:04.215Z,91.40
2018-12-01T11:30:32.804Z,91.20
2018-12-01T11:33:01.344Z,91.20
2018-12-01T11:35:30.000Z,91.40
2018-12-01T11:37:58.526Z,91.50
2018-12-01T11:40:27.066Z,91.70
2018-12-01T11:42:55.567Z,92.00
2018-12-01T11:45:24.057Z,91.70
2018-12-01T11:47:52.627Z,91.50
2018-12-01T11:50:21.299Z,91.30
2018-12-01T11:52:50.633Z,91.20
2018-12-01T11:55:21.189Z,90.80
2018-12-01T11:57:49.863Z,90.90
2018-12-01T12:00:21.724Z,90.90
2018-12-01T12:02:50.258Z,90.90
2018-12-01T12:05:19.868Z,90.60
2018-12-01T12:07:59.741Z,90.50
2018-12-01T12:10:28.358Z,90.50
2018-12-01T12:12:56.895Z,90.50
2018-12-01T12:15:26.188Z,90.50
2018-12-01T12:18:02.356Z,90.30
2018-12-01T12:20:31.453Z,90.40
2018-12-01T12:23:00.047Z,90.30
2018-12-01T12:25:28.547Z,90.00
2018-12-01T12:27:57.161Z,89.50
2018-12-01T12:30:26.094Z,90.10
2018-12-01T12:32:54.257Z,90.10
2018-12-01T12:35:22.791Z,90.10
2018-12-01T12:37:51.341Z,89.60
2018-12-01T12:40:23.802Z,89.50
2018-12-01T12:42:56.586Z,88.90
2018-12-01T12:45:25.385Z,89.00
2018-12-01T12:47:54.932Z,89.10
2018-12-01T12:50:24.068Z,88.60
2018-12-01T12:52:54.546Z,89.10
2018-12-01T12:55:24.259Z,88.40
2018-12-01T12:57:52.918Z,88.70
2018-12-01T13:00:23.559Z,88.80
2018-12-01T13:02:59.489Z,88.60
2018-12-01T13:05:33.085Z,88.60
2018-12-01T13:08:03.820Z,88.90
2018-12-01T13:10:32.497Z,88.80
2018-12-01T13:13:01.078Z,88.50
2018-12-01T13:15:29.581Z,89.00
2018-12-01T13:17:58.124Z,88.40
2018-12-01T13:20:26.735Z,88.80
2018-12-01T13:22:57.483Z,88.40
2018-12-01T13:25:26.046Z,88.20
2018-12-01T13:28:04.445Z,87.50
2018-12-01T13:30:37.274Z,88.00
2018-12-01T13:33:05.985Z,87.80
2018-12-01T13:35:34.630Z,88.20
2018-12-01T13:38:03.201Z,88.90
2018-12-01T13:40:31.729Z,88.30
2018-12-01T13:43:00.284Z,88.80
2018-12-01T13:45:28.821Z,89.30
2018-12-01T13:47:58.528Z,89.40
2018-12-01T13:50:27.137Z,89.80
2018-12-01T13:52:58.200Z,90.00
2018-12-01T13:55:26.892Z,89.70
2018-12-01T13:57:55.449Z,90.10
2018-12-01T14:00:27.708Z,90.20
2018-12-01T14:02:57.964Z,90.40
2018-12-01T14:05:26.508Z,90.30
2018-12-01T14:07:55.047Z,90.40
2018-12-01T14:10:25.912Z,90.10
2018-12-01T14:12:55.982Z,90.10
2018-12-01T14:15:24.834Z,90.20
2018-12-01T14:17:53.810Z,90.20
2018-12-01T14:20:22.995Z,90.40
2018-12-01T14:22:52.923Z,90.00
2018-12-01T14:25:22.404Z,90.20
2018-12-01T14:27:57.127Z,90.10
2018-12-01T14:30:25.830Z,89.90
2018-12-01T14:32:54.409Z,89.40
2018-12-01T14:35:30.809Z,89.70
2018-12-01T14:38:06.327Z,89.70
2018-12-01T14:40:35.059Z,89.80
2018-12-01T14:43:03.699Z,89.80
2018-12-01T14:45:32.244Z,89.80
2018-12-01T14:48:00.897Z,90.10
2018-12-01T14:50:29.432Z,90.10
2018-12-01T14:52:58.032Z,89.90
2018-12-01T14:55:26.643Z,89.40
2018-12-01T14:57:55.197Z,89.40
2018-12-01T15:00:24.660Z,89.40
2018-12-01T15:02:55.118Z,89.50
2018-12-01T15:05:24.209Z,89.70
2018-12-01T15:07:52.901Z,90.10
2018-12-01T15:10:23.643Z,90.20
2018-12-01T15:12:52.226Z,90.40
2018-12-01T15:15:22.081Z,90.50
2018-12-01T15:17:50.699Z,90.60
2018-12-01T15:20:20.270Z,90.60
2018-12-01T15:22:49.974Z,90.80
2018-12-01T15:25:20.741Z,90.80
2018-12-01T15:27:49.349Z,90.90
2018-12-01T15:30:19.190Z,90.90
2018-12-01T15:32:56.115Z,90.70
2018-12-01T15:35:24.712Z,90.90
2018-12-01T15:37:53.359Z,91.10
2018-12-01T15:40:22.205Z,91.10
2018-12-01T15:42:50.871Z,91.00
2018-12-01T15:45:20.444Z,91.10
2018-12-01T15:47:49.127Z,91.10
2018-12-01T15:50:19.890Z,91.30
2018-12-01T15:52:53.097Z,91.60
2018-12-01T15:55:23.330Z,91.90
2018-12-01T15:57:52.124Z,92.20
2018-12-01T16:00:23.635Z,92.50
2018-12-01T16:02:52.254Z,92.80
2018-12-01T16:05:21.695Z,92.90
2018-12-01T16:07:58.609Z,92.90
2018-12-01T16:10:27.377Z,92.70
2018-12-01T16:13:15.355Z,92.70
2018-12-01T16:15:46.285Z,92.80
2018-12-01T16:18:14.852Z,93.00
2018-12-01T16:20:43.461Z,93.20
2018-12-01T16:23:12.979Z,93.20
2018-12-01T16:25:41.917Z,93.30
2018-12-01T16:28:10.662Z,93.30
2018-12-01T16:30:42.708Z,93.50
2018-12-01T16:33:15.527Z,93.80
2018-12-01T16:35:44.196Z,93.90
2018-12-01T16:38:14.797Z,94.10
2018-12-01T16:40:46.033Z,94.00
2018-12-01T16:43:15.819Z,94.10
2018-12-01T16:45:46.735Z,94.00
2018-12-01T16:48:15.335Z,94.20
2018-12-01T16:50:43.899Z,94.50
2018-12-01T16:53:14.259Z,94.60
2018-12-01T16:55:43.116Z,94.50
2018-12-01T16:58:11.946Z,94.60
2018-12-01T17:00:40.977Z,94.60
2018-12-01T17:03:10.488Z,94.60
2018-12-01T17:05:45.017Z,94.60
2018-12-01T17:08:13.657Z,94.40
2018-12-01T17:10:42.284Z,94.30
2018-12-01T17:13:10.879Z,94.40
2018-12-01T17:15:39.520Z,94.30
2018-12-01T17:18:09.133Z,94.20
2018-12-01T17:20:38.121Z,94.30
2018-12-01T17:23:09.278Z,94.50
2018-12-01T17:25:37.825Z,94.60
2018-12-01T17:28:08.658Z,94.70
2018-12-01T17:30:37.278Z,94.70
2018-12-01T17:33:07.572Z,94.70
2018-12-01T17:35:36.233Z,94.80
2018-12-01T17:38:07.234Z,94.80
2018-12-01T17:40:39.309Z,94.70
2018-12-01T17:43:09.908Z,94.70
2018-12-01T17:45:38.464Z,94.70
2018-12-01T17:48:07.847Z,94.80
2018-12-01T17:50:36.430Z,94.80
2018-12-01T17:53:10.211Z,95.00
2018-12-01T17:55:33.714Z,95.00
2018-12-01T17:58:03.356Z,95.10
2018-12-01T18:00:31.955Z,95.00
2018-12-01T18:03:01.746Z,94.90
2018-12-01T18:05:39.632Z,94.90
2018-12-01T18:08:10.457Z,94.60
2018-12-01T18:10:39.127Z,94.40
2018-12-01T18:13:07.842Z,94.20
2018-12-01T18:15:36.569Z,93.70
2018-12-01T18:18:05.746Z,93.70
2018-12-01T18:20:34.546Z,93.70
2018-12-01T18:23:03.784Z,93.70
2018-12-01T18:25:39.630Z,93.70
2018-12-01T18:28:09.539Z,93.80
2018-12-01T18:30:39.436Z,93.90
2018-12-01T18:33:13.939Z,93.90
2018-12-01T18:35:43.080Z,93.90
2018-12-01T18:38:12.203Z,94.00
2018-12-01T18:40:40.984Z,94.00
2018-12-01T18:43:10.279Z,94.00
2018-12-01T18:45:41.192Z,94.20
2018-12-01T18:48:10.010Z,94.20
2018-12-01T18:50:39.280Z,94.10
2018-12-01T18:53:09.211Z,94.20
2018-12-01T18:55:41.967Z,94.40
2018-12-01T18:58:10.876Z,94.70
2018-12-01T19:00:46.619Z,94.50
2018-12-01T19:03:15.333Z,94.70
2018-12-01T19:05:43.988Z,94.70
2018-12-01T19:08:12.571Z,94.80
2018-12-01T19:10:41.243Z,94.90
2018-12-01T19:13:09.932Z,95.00
2018-12-01T19:15:38.525Z,95.00
2018-12-01T19:18:08.063Z,95.10
2018-12-01T19:23:11.699Z,94.90
2018-12-01T19:25:42.820Z,95.10
2018-12-01T19:28:11.654Z,95.10
2018-12-01T19:30:40.352Z,95.00
2018-12-01T19:33:10.582Z,95.00
2018-12-01T19:35:39.579Z,95.20
2018-12-01T19:38:09.776Z,95.10
2018-12-01T19:40:38.408Z,94.90
2018-12-01T19:43:07.126Z,95.10
2018-12-01T19:45:35.784Z,95.00
2018-12-01T19:48:04.476Z,95.40
2018-12-01T19:50:37.489Z,95.50
2018-12-01T19:53:08.079Z,95.50
2018-12-01T19:55:36.993Z,95.70
2018-12-01T19:58:12.541Z,95.80
2018-12-01T20:00:43.133Z,96.10
2018-12-01T20:03:14.486Z,96.10
2018-12-01T20:05:43.205Z,96.30
2018-12-01T20:08:12.420Z,96.40
2018-12-01T20:10:43.533Z,96.40
2018-12-01T20:13:17.063Z,96.50
2018-12-01T20:15:50.424Z,96.40
2018-12-01T20:18:23.783Z,96.50
2018-12-01T20:20:52.409Z,96.60
2018-12-01T20:23:20.979Z,96.60
2018-12-01T20:25:50.753Z,96.70
2018-12-01T20:28:19.404Z,96.70
2018-12-01T20:30:48.872Z,96.70
2018-12-01T20:33:18.252Z,96.80
2018-12-01T20:35:53.918Z,96.80
2018-12-01T20:38:33.938Z,96.70
2018-12-01T20:41:02.644Z,96.90
2018-12-01T20:43:31.226Z,97.20
2018-12-01T20:45:59.776Z,97.00
2018-12-01T20:48:28.363Z,96.70
2018-12-01T20:50:56.851Z,96.70
2018-12-01T20:53:25.398Z,96.50
2018-12-01T20:55:56.855Z,96.50
2018-12-01T20:58:27.844Z,96.20
2018-12-01T21:00:56.404Z,96.30
2018-12-01T21:03:25.009Z,96.50
2018-12-01T21:05:53.631Z,96.60
2018-12-01T21:08:27.659Z,96.60
2018-12-01T21:10:55.847Z,96.50
2018-12-01T21:13:24.339Z,96.50
2018-12-01T21:15:52.817Z,96.50
2018-12-01T21:18:21.406Z,96.40
2018-12-01T21:20:50.017Z,96.40
2018-12-01T21:23:18.566Z,96.40
2018-12-01T21:25:47.192Z,96.20
2018-12-01T21:28:16.610Z,96.20
2018-12-01T21:30:46.509Z,96.30
2018-12-01T21:33:19.346Z,96.40
2018-12-01T21:35:47.950Z,96.30
2018-12-01T21:38:17.367Z,96.30
2018-12-01T21:40:46.709Z,96.30
2018-12-01T21:43:15.274Z,96.30
2018-12-01T21:45:43.877Z,96.50
2018-12-01T21:48:13.635Z,96.60
2018-12-01T21:50:43.037Z,96.70
2018-12-01T21:53:16.247Z,96.80
2018-12-01T21:55:44.714Z,96.70
2018-12-01T21:58:13.869Z,96.60
2018-12-01T22:00:44.293Z,96.60
2018-12-01T22:03:13.981Z,96.40
2018-12-01T22:05:46.398Z,96.50
2018-12-01T22:08:15.877Z,96.30
2018-12-01T22:10:50.410Z,96.20
2018-12-01T22:13:19.093Z,96.20
2018-12-01T22:15:47.640Z,96.20
2018-12-01T22:18:16.379Z,96.20
2018-12-01T22:20:44.993Z,96.00
2018-12-01T22:23:13.527Z,95.80
2018-12-01T22:25:42.110Z,95.70
2018-12-01T22:28:12.182Z,95.50
2018-12-01T22:30:41.218Z,95.30
2018-12-01T22:33:11.920Z,95.20
2018-12-01T22:35:42.122Z,95.20
2018-12-01T22:38:10.897Z,95.20
2018-12-01T22:40:40.481Z,95.10
2018-12-01T22:43:09.231Z,95.10
2018-12-01T22:45:37.889Z,94.90
2018-12-01T22:48:10.050Z,94.90
2018-12-01T22:50:39.878Z,94.90
2018-12-01T22:53:08.466Z,94.80
2018-12-01T22:55:37.364Z,94.80
2018-12-01T22:58:09.309Z,94.80
2018-12-01T23:00:54.543Z,94.90
2018-12-01T23:03:23.670Z,94.90
2018-12-01T23:05:52.283Z,95.10
2018-12-01T23:08:22.436Z,94.80
2018-12-01T23:10:50.959Z,94.70
2018-12-01T23:13:19.670Z,94.50
2018-12-01T23:15:48.544Z,94.70
2018-12-01T23:18:19.211Z,94.60
2018-12-01T23:20:48.627Z,94.60
2018-12-01T23:23:17.259Z,94.60
2018-12-01T23:25:45.902Z,94.80
2018-12-01T23:28:14.523Z,94.40
2018-12-01T23:30:46.452Z,94.30
2018-12-01T23:33:18.698Z,94.30
2018-12-01T23:35:47.339Z,94.30
2018-12-01T23:38:15.909Z,94.20
2018-12-01T23:40:44.551Z,94.20
2018-12-01T23:43:13.123Z,94.10
2018-12-01T23:45:43.067Z,94.00
2018-12-01T23:48:11.623Z,93.80
2018-12-01T23:50:42.156Z,93.70
2018-12-01T23:53:12.366Z,93.70
2018-12-01T23:55:40.929Z,93.70
2018-12-01T23:58:09.536Z,93.80
